createdAt,value
2023-02-17T00:03:06.467Z,151.55
2023-02-17T00:07:08.181Z,161.15
2023-02-17T00:11:10.263Z,148.23
2023-02-17T00:15:12.385Z,155.43
2023-02-17T00:19:25.065Z,146.95
2023-02-17T00:23:27.472Z,150.35
2023-02-17T00:27:29.474Z,150.00
2023-02-17T00:31:31.505Z,144.20
2023-02-17T00:35:34.580Z,161.57
2023-02-17T00:39:37.359Z,151.38
2023-02-17T00:43:39.437Z,158.60
2023-02-17T00:47:41.401Z,155.05
2023-02-17T00:51:45.984Z,159.35
2023-02-17T00:55:48.535Z,211.57
2023-02-17T00:59:50.706Z,214.82
2023-02-17T01:03:52.695Z,163.77
2023-02-17T01:07:55.734Z,164.23
2023-02-17T01:11:57.791Z,151.45
2023-02-17T01:16:00.096Z,183.93
2023-02-17T01:20:02.116Z,188.00
2023-02-17T01:24:06.332Z,145.63
2023-02-17T01:28:15.429Z,176.32
2023-02-17T01:32:17.421Z,149.27
2023-02-17T01:36:20.518Z,159.52
2023-02-17T01:40:22.926Z,188.20
2023-02-17T01:44:26.225Z,157.27
2023-02-17T01:48:33.043Z,136.95
2023-02-17T01:52:35.039Z,133.70
2023-02-17T01:56:41.028Z,144.45
2023-02-17T02:00:43.301Z,135.43
2023-02-17T02:04:48.388Z,177.13
2023-02-17T02:09:03.168Z,161.50
2023-02-17T02:13:06.961Z,158.25
2023-02-17T02:17:31.839Z,139.70
2023-02-17T02:21:58.626Z,139.60
2023-02-17T02:26:13.743Z,124.88
2023-02-17T02:30:40.400Z,137.13
2023-02-17T02:34:50.896Z,136.48
2023-02-17T02:39:07.428Z,144.35
2023-02-17T02:43:09.797Z,146.68
2023-02-17T02:47:50.184Z,145.40
2023-02-17T02:52:12.670Z,154.50
2023-02-17T03:00:45.583Z,184.00
2023-02-17T03:04:55.740Z,192.60
2023-02-17T03:09:06.280Z,204.82
2023-02-17T03:13:08.391Z,190.70
2023-02-17T03:17:12.367Z,169.95
2023-02-17T03:21:17.219Z,152.77
2023-02-17T03:25:19.188Z,177.63
2023-02-17T03:29:21.788Z,164.60
2023-02-17T03:33:23.719Z,138.38
2023-02-17T03:37:27.627Z,154.15
2023-02-17T03:41:29.912Z,147.90
2023-02-17T03:45:32.024Z,150.63
2023-02-17T03:49:33.985Z,156.45
2023-02-17T03:53:36.103Z,165.57
2023-02-17T03:57:38.141Z,167.05
2023-02-17T04:01:40.301Z,150.77
2023-02-17T04:05:44.613Z,161.02
2023-02-17T04:09:46.621Z,168.50
2023-02-17T04:13:48.557Z,172.80
2023-02-17T04:17:50.845Z,171.25
2023-02-17T04:21:52.970Z,180.10
2023-02-17T04:25:55.311Z,186.38
2023-02-17T04:29:56.981Z,174.25
2023-02-17T04:33:58.986Z,176.88
2023-02-17T04:38:00.624Z,203.57
2023-02-17T04:42:02.662Z,201.10
2023-02-17T04:46:05.335Z,191.13
2023-02-17T04:50:09.509Z,211.68
2023-02-17T04:54:11.450Z,200.60
2023-02-17T04:58:13.610Z,219.98
2023-02-17T05:02:15.528Z,209.85
2023-02-17T05:06:17.504Z,202.98
2023-02-17T05:10:20.027Z,213.75
2023-02-17T05:14:21.986Z,200.02
2023-02-17T05:18:24.266Z,217.57
2023-02-17T05:22:27.196Z,192.05
2023-02-17T05:26:29.162Z,195.50
2023-02-17T05:30:31.370Z,210.88
2023-02-17T05:34:33.367Z,212.30
2023-02-17T05:38:36.304Z,245.30
2023-02-17T05:42:38.074Z,245.27
2023-02-17T05:46:40.248Z,214.23
2023-02-17T05:50:42.234Z,238.88
2023-02-17T05:54:44.573Z,220.48
2023-02-17T05:58:46.610Z,251.65
2023-02-17T06:02:48.824Z,267.30
2023-02-17T06:06:50.968Z,231.93
2023-02-17T06:10:54.014Z,231.48
2023-02-17T06:14:56.012Z,270.05
2023-02-17T06:19:00.090Z,232.35
2023-02-17T06:23:02.067Z,221.18
2023-02-17T06:27:04.043Z,247.55
2023-02-17T06:31:06.121Z,226.52
2023-02-17T06:35:08.482Z,219.77
2023-02-17T06:39:10.570Z,218.88
2023-02-17T06:43:12.573Z,203.27
2023-02-17T06:47:14.612Z,216.45
2023-02-17T06:51:16.564Z,207.57
2023-02-17T06:55:18.663Z,217.93
2023-02-17T06:59:20.588Z,209.80
2023-02-17T07:03:22.631Z,195.95
2023-02-17T07:07:24.790Z,197.75
2023-02-17T07:11:31.220Z,201.48
2023-02-17T07:15:33.172Z,200.32
2023-02-17T07:19:35.177Z,175.15
2023-02-17T07:23:38.385Z,181.13
2023-02-17T07:27:40.413Z,154.15
2023-02-17T07:31:42.430Z,172.25
2023-02-17T07:35:44.533Z,152.38
2023-02-17T07:39:46.497Z,159.40
2023-02-17T07:43:49.018Z,146.13
2023-02-17T07:47:52.093Z,143.43
2023-02-17T07:51:54.120Z,143.50
2023-02-17T07:55:56.214Z,137.90
2023-02-17T07:59:58.233Z,130.13
2023-02-17T08:04:00.237Z,134.95
2023-02-17T08:08:20.673Z,142.52
2023-02-17T08:12:41.359Z,139.82
2023-02-17T08:16:43.580Z,128.05
2023-02-17T08:20:45.596Z,125.55
2023-02-17T08:24:47.752Z,126.05
2023-02-17T08:28:49.822Z,116.65
2023-02-17T08:32:51.812Z,113.63
2023-02-17T08:36:53.887Z,118.85
2023-02-17T08:40:55.878Z,117.95
2023-02-17T08:44:58.162Z,113.78
2023-02-17T08:49:00.286Z,117.75
2023-02-17T08:53:02.744Z,102.80
2023-02-17T08:57:05.030Z,108.25
2023-02-17T09:01:07.516Z,104.38
2023-02-17T09:05:09.966Z,103.68
2023-02-17T09:09:14.300Z,95.88
2023-02-17T09:13:16.736Z,98.85
2023-02-17T09:17:18.844Z,109.90
2023-02-17T09:21:21.529Z,106.30
2023-02-17T09:25:23.666Z,109.00
2023-02-17T09:29:25.658Z,102.18
2023-02-17T09:33:27.747Z,98.88
2023-02-17T09:37:29.791Z,98.10
2023-02-17T09:41:40.771Z,100.10
2023-02-17T09:45:46.878Z,100.28
2023-02-17T09:49:57.083Z,107.20
2023-02-17T09:54:19.291Z,104.13
2023-02-17T09:58:32.253Z,106.68
2023-02-17T10:02:58.583Z,108.75
2023-02-17T10:07:13.414Z,113.88
2023-02-17T10:11:29.826Z,109.15
2023-02-17T10:15:36.263Z,108.70
2023-02-17T10:19:54.323Z,123.10
2023-02-17T10:23:56.488Z,117.27
2023-02-17T10:28:08.808Z,120.40
2023-02-17T10:32:20.166Z,119.57
2023-02-17T10:36:42.443Z,126.97
2023-02-17T10:40:50.049Z,125.07
2023-02-17T10:44:54.707Z,129.60
2023-02-17T10:48:59.029Z,136.10
2023-02-17T10:53:01.005Z,132.18
2023-02-17T10:57:08.159Z,134.35
2023-02-17T11:01:10.613Z,126.85
2023-02-17T11:05:33.902Z,140.35
2023-02-17T11:09:44.857Z,125.28
2023-02-17T11:14:08.215Z,126.85
2023-02-17T11:18:21.594Z,129.90
2023-02-17T11:22:32.683Z,120.88
2023-02-17T11:26:36.309Z,121.63
2023-02-17T11:30:41.174Z,122.45
2023-02-17T11:34:44.390Z,129.65
2023-02-17T11:38:46.448Z,132.20
2023-02-17T11:42:55.658Z,138.57
2023-02-17T11:47:38.916Z,137.95
2023-02-17T11:52:02.265Z,142.25
2023-02-17T11:56:15.534Z,148.60
2023-02-17T12:00:51.527Z,157.23
2023-02-17T12:05:08.779Z,146.57
2023-02-17T12:09:23.905Z,124.15
2023-02-17T12:13:50.448Z,138.45
2023-02-17T12:18:22.245Z,138.02
2023-02-17T12:22:47.056Z,127.60
2023-02-17T12:27:42.215Z,127.93
2023-02-17T12:32:03.191Z,116.03
2023-02-17T12:36:11.214Z,118.88
2023-02-17T12:40:31.021Z,116.93
2023-02-17T12:44:39.851Z,113.85
2023-02-17T12:48:55.257Z,106.60
2023-02-17T12:53:02.495Z,97.50
2023-02-17T12:57:10.728Z,101.22
2023-02-17T13:01:18.992Z,98.53
2023-02-17T13:05:27.925Z,100.53
2023-02-17T13:09:32.612Z,95.05
2023-02-17T13:13:35.569Z,92.88
2023-02-17T13:17:40.472Z,108.20
2023-02-17T13:21:54.589Z,101.43
2023-02-17T13:26:14.160Z,91.13
2023-02-17T13:30:22.487Z,96.00
2023-02-17T13:34:36.452Z,89.57
2023-02-17T13:38:38.527Z,98.78
2023-02-17T13:42:49.881Z,98.65
2023-02-17T13:46:53.206Z,92.93
2023-02-17T13:50:56.174Z,105.30
2023-02-17T13:55:05.158Z,95.05
2023-02-17T13:59:18.759Z,105.07
2023-02-17T14:03:28.098Z,106.65
2023-02-17T14:07:34.752Z,106.00
2023-02-17T14:11:36.778Z,117.47
2023-02-17T14:15:50.549Z,112.78
2023-02-17T14:19:52.681Z,114.10
2023-02-17T14:23:56.565Z,125.65
2023-02-17T14:27:58.552Z,114.80
2023-02-17T14:32:00.874Z,131.27
2023-02-17T14:36:07.798Z,118.10
2023-02-17T14:40:26.021Z,119.47
2023-02-17T14:44:27.682Z,105.05
2023-02-17T14:48:29.695Z,117.43
2023-02-17T14:52:31.738Z,113.55
2023-02-17T14:56:37.588Z,108.55
2023-02-17T15:00:39.595Z,111.80
2023-02-17T15:04:41.649Z,102.00
2023-02-17T15:08:45.965Z,106.38
2023-02-17T15:12:48.102Z,104.57
2023-02-17T15:16:50.115Z,104.13
2023-02-17T15:20:52.468Z,116.15
2023-02-17T15:24:54.423Z,119.40
2023-02-17T15:28:59.933Z,119.10
2023-02-17T15:33:02.590Z,115.47
2023-02-17T15:37:04.534Z,117.07
2023-02-17T15:41:14.048Z,117.82
2023-02-17T15:45:19.636Z,123.22
2023-02-17T15:49:22.723Z,130.15
2023-02-17T15:53:24.861Z,138.48
2023-02-17T15:57:27.009Z,127.40
2023-02-17T16:01:32.027Z,136.65
2023-02-17T16:05:34.204Z,136.35
2023-02-17T16:09:36.235Z,130.25
2023-02-17T16:13:38.460Z,138.75
2023-02-17T16:17:40.699Z,147.93
2023-02-17T16:21:42.763Z,116.18
2023-02-17T16:25:46.332Z,124.70
2023-02-17T16:29:48.382Z,125.38
2023-02-17T16:33:51.662Z,115.28
2023-02-17T16:37:59.839Z,119.57
2023-02-17T16:42:01.860Z,116.43
2023-02-17T16:46:05.625Z,118.40
2023-02-17T16:50:08.802Z,118.20
2023-02-17T16:54:11.982Z,126.47
2023-02-17T16:58:17.931Z,116.32
2023-02-17T17:02:21.730Z,119.20
2023-02-17T17:06:26.868Z,108.70
2023-02-17T17:10:31.444Z,100.18
2023-02-17T17:14:33.642Z,105.55
2023-02-17T17:18:35.710Z,96.82
2023-02-17T17:22:37.367Z,102.25
2023-02-17T17:26:43.932Z,104.07
2023-02-17T17:30:46.766Z,100.53
2023-02-17T17:34:52.043Z,108.25
2023-02-17T17:38:55.488Z,103.93
2023-02-17T17:42:57.594Z,104.15
2023-02-17T17:46:59.517Z,102.43
2023-02-17T17:51:01.608Z,99.50
2023-02-17T17:55:03.444Z,102.40
2023-02-17T17:59:06.370Z,88.47
2023-02-17T18:03:08.430Z,82.97
2023-02-17T18:07:10.603Z,83.13
2023-02-17T18:11:17.468Z,80.45
2023-02-17T18:15:19.790Z,85.95
2023-02-17T18:19:21.821Z,89.38
2023-02-17T18:23:23.827Z,70.25
2023-02-17T18:27:25.869Z,64.28
2023-02-17T18:31:29.688Z,70.30
2023-02-17T18:35:38.563Z,70.00
2023-02-17T18:39:40.818Z,66.65
2023-02-17T18:43:42.817Z,65.90
2023-02-17T18:47:46.255Z,66.15
2023-02-17T18:51:48.581Z,71.50
2023-02-17T18:55:50.651Z,56.78
2023-02-17T18:59:52.922Z,58.63
2023-02-17T19:03:55.903Z,56.35
2023-02-17T19:07:58.479Z,66.78
2023-02-17T19:12:00.788Z,58.63
2023-02-17T19:16:12.467Z,65.53
2023-02-17T19:20:17.059Z,65.93
2023-02-17T19:24:19.218Z,58.42
2023-02-17T19:28:21.701Z,66.38
2023-02-17T19:32:23.843Z,57.38
2023-02-17T19:36:26.786Z,60.97
2023-02-17T19:40:28.943Z,69.00
2023-02-17T19:44:31.820Z,78.50
2023-02-17T19:48:34.556Z,64.18
2023-02-17T19:52:37.928Z,73.97
2023-02-17T19:56:40.090Z,69.50
2023-02-17T20:00:42.491Z,69.78
2023-02-17T20:04:44.737Z,66.63
2023-02-17T20:08:51.547Z,77.68
2023-02-17T20:12:53.918Z,80.55
2023-02-17T20:16:56.538Z,74.18
2023-02-17T20:20:58.605Z,75.30
2023-02-17T20:25:00.853Z,78.75
2023-02-17T20:29:03.151Z,70.13
2023-02-17T20:33:05.925Z,63.47
2023-02-17T20:37:09.770Z,62.00
2023-02-17T20:41:16.626Z,61.60
2023-02-17T20:45:18.724Z,50.53
2023-02-17T20:49:21.499Z,55.60
2023-02-17T20:53:25.123Z,52.00
2023-02-17T20:57:27.910Z,54.22
2023-02-17T21:01:30.896Z,54.60
2023-02-17T21:05:33.182Z,44.08
2023-02-17T21:09:35.284Z,49.05
2023-02-17T21:13:37.615Z,53.92
2023-02-17T21:17:39.825Z,41.75
2023-02-17T21:21:42.398Z,36.30
2023-02-17T21:25:45.600Z,39.70
2023-02-17T21:29:48.170Z,39.95
2023-02-17T21:33:50.186Z,39.38
2023-02-17T21:37:52.336Z,36.00
2023-02-17T21:41:54.514Z,43.88
2023-02-17T21:45:56.848Z,29.67
2023-02-17T21:49:59.166Z,32.20
2023-02-17T21:54:01.344Z,22.00
2023-02-17T21:58:03.613Z,33.47
2023-02-17T22:02:05.816Z,23.10
2023-02-17T22:06:20.457Z,27.13
2023-02-17T22:10:22.886Z,21.10
2023-02-17T22:14:25.011Z,18.45
2023-02-17T22:18:27.184Z,17.38
2023-02-17T22:22:29.594Z,21.90
2023-02-17T22:26:31.950Z,16.73
2023-02-17T22:30:34.003Z,19.83
2023-02-17T22:34:36.303Z,9.68
2023-02-17T22:38:38.703Z,10.07
2023-02-17T22:42:40.555Z,6.82
2023-02-17T22:46:42.830Z,6.95
2023-02-17T22:50:44.992Z,7.95
2023-02-17T22:54:47.199Z,9.98
2023-02-17T22:58:55.400Z,6.65
2023-02-17T23:02:57.622Z,10.98
2023-02-17T23:06:59.967Z,7.82
2023-02-17T23:11:10.430Z,10.90
2023-02-17T23:15:12.939Z,7.47
2023-02-17T23:19:17.551Z,8.25
2023-02-17T23:23:21.091Z,9.13
2023-02-17T23:27:23.094Z,7.82
2023-02-17T23:31:25.292Z,10.23
2023-02-17T23:35:27.317Z,5.57
2023-02-17T23:39:29.563Z,6.45
2023-02-17T23:43:31.839Z,5.45
2023-02-17T23:47:34.127Z,9.63
2023-02-17T23:51:36.115Z,8.48
2023-02-17T23:55:38.155Z,10.63
2023-02-17T23:59:40.239Z,10.52
